Time;durP1;ratioP1;P1;durP2;ratioP2;P2;SDS_P1;SDS_P2;PMS_P1;PMS_P2;Temp;Humidity;BMP_temperature;BMP_pressure;BME280_temperature;BME280_humidity;BME280_pressure;Samples;Min_cycle;Max_cycle;Signal;HPM_P1;HPM_P2
2023/04/25 00:01:42;;;;;;;7.50;2.50;;;;;;;-128.00;-1.00;-1.00;18915;294;7505058;-34
2023/04/25 00:04:08;;;;;;;1.80;1.40;;;;;;;-128.00;-1.00;-1.00;18873;294;7504508;-35
2023/04/25 00:06:35;;;;;;;4.40;2.30;;;;;;;-128.00;-1.00;-1.00;18867;307;7504983;-32
2023/04/25 00:09:07;;;;;;;2.00;1.80;;;;;;;-128.00;-1.00;-1.00;18498;294;7504289;-32
2023/04/25 00:11:33;;;;;;;1.40;0.80;;;;;;;-128.00;-1.00;-1.00;18467;335;7504716;-35
2023/04/25 00:14:01;;;;;;;1.20;0.90;;;;;;;-128.00;-1.00;-1.00;18494;294;7504348;-33
2023/04/25 00:16:28;;;;;;;5.80;1.20;;;;;;;-128.00;-1.00;-1.00;18496;294;7506154;-35
2023/04/25 00:18:54;;;;;;;13.00;1.90;;;;;;;-128.00;-1.00;-1.00;18468;294;7504942;-32
2023/04/25 00:21:20;;;;;;;0.80;0.60;;;;;;;-128.00;-1.00;-1.00;18481;288;7505991;-35
2023/04/25 00:23:46;;;;;;;2.30;1.30;;;;;;;-128.00;-1.00;-1.00;18501;296;7504576;-33
2023/04/25 00:26:12;;;;;;;2.00;1.80;;;;;;;-128.00;-1.00;-1.00;18477;299;7506502;-32
2023/04/25 00:28:39;;;;;;;0.90;0.60;;;;;;;-128.00;-1.00;-1.00;18484;294;7505334;-33
2023/04/25 00:31:05;;;;;;;9.30;0.80;;;;;;;-128.00;-1.00;-1.00;18484;347;7504712;-34
2023/04/25 00:33:30;;;;;;;0.80;0.60;;;;;;;-128.00;-1.00;-1.00;18462;347;7505479;-35
2023/04/25 00:35:56;;;;;;;1.40;0.70;;;;;;;-128.00;-1.00;-1.00;18863;296;7504462;-35
2023/04/25 00:38:22;;;;;;;11.90;1.00;;;;;;;-128.00;-1.00;-1.00;18882;339;7506016;-35
2023/04/25 00:40:49;;;;;;;0.50;0.50;;;;;;;-128.00;-1.00;-1.00;18852;295;7504811;-33
2023/04/25 00:43:15;;;;;;;1.10;0.60;;;;;;;-128.00;-1.00;-1.00;18884;294;7505026;-31
2023/04/25 00:45:41;;;;;;;0.50;0.30;;;;;;;-128.00;-1.00;-1.00;18894;294;7504584;-31
2023/04/25 00:48:07;;;;;;;1.00;0.80;;;;;;;-128.00;-1.00;-1.00;18896;294;7505042;-32
2023/04/25 00:50:34;;;;;;;1.20;0.90;;;;;;;-128.00;-1.00;-1.00;18877;295;7504610;-34
2023/04/25 00:53:00;;;;;;;0.50;0.50;;;;;;;-128.00;-1.00;-1.00;18873;295;7504984;-31
2023/04/25 00:55:27;;;;;;;0.80;0.50;;;;;;;-128.00;-1.00;-1.00;18890;295;7504980;-35
2023/04/25 00:57:52;;;;;;;0.20;0.20;;;;;;;-128.00;-1.00;-1.00;18470;297;7505958;-31
2023/04/25 01:00:19;;;;;;;1.40;0.70;;;;;;;-128.00;-1.00;-1.00;18881;295;7504593;-35
2023/04/25 01:02:45;;;;;;;0.40;0.30;;;;;;;-128.00;-1.00;-1.00;18472;347;7504656;-34
2023/04/25 01:05:11;;;;;;;1.10;0.60;;;;;;;-128.00;-1.00;-1.00;18454;295;7504953;-31
2023/04/25 01:07:37;;;;;;;2.50;1.00;;;;;;;-128.00;-1.00;-1.00;18495;295;7504670;-35
2023/04/25 01:10:04;;;;;;;0.50;0.50;;;;;;;-128.00;-1.00;-1.00;18450;297;7504337;-31
2023/04/25 01:12:30;;;;;;;0.90;0.60;;;;;;;-128.00;-1.00;-1.00;18457;347;7506079;-34
2023/04/25 01:14:56;;;;;;;1.10;0.60;;;;;;;-128.00;-1.00;-1.00;18496;295;7505781;-34
2023/04/25 01:17:22;;;;;;;0.50;0.30;;;;;;;-128.00;-1.00;-1.00;18481;288;7504404;-31
2023/04/25 01:19:49;;;;;;;0.90;0.50;;;;;;;-128.00;-1.00;-1.00;18446;340;7504831;-36
2023/04/25 01:22:14;;;;;;;0.60;0.60;;;;;;;-128.00;-1.00;-1.00;18490;295;7504913;-35
2023/04/25 01:24:40;;;;;;;1.90;0.90;;;;;;;-128.00;-1.00;-1.00;18468;295;7506071;-36
2023/04/25 01:27:06;;;;;;;1.40;0.50;;;;;;;-128.00;-1.00;-1.00;18864;295;7505069;-36
2023/04/25 01:29:33;;;;;;;0.40;0.30;;;;;;;-128.00;-1.00;-1.00;18890;287;7504601;-32
2023/04/25 01:31:59;;;;;;;0.50;0.40;;;;;;;-128.00;-1.00;-1.00;18509;295;7504905;-32
2023/04/25 01:34:25;;;;;;;1.40;0.80;;;;;;;-128.00;-1.00;-1.00;18464;295;7504422;-32
2023/04/25 01:36:51;;;;;;;0.70;0.30;;;;;;;-128.00;-1.00;-1.00;18479;295;7506535;-36
2023/04/25 01:39:20;;;;;;;0.80;0.70;;;;;;;-128.00;-1.00;-1.00;18474;306;7505071;-32
2023/04/25 01:41:46;;;;;;;0.10;0.10;;;;;;;-128.00;-1.00;-1.00;18482;295;7505822;-35
2023/04/25 01:44:13;;;;;;;0.70;0.50;;;;;;;-128.00;-1.00;-1.00;18482;295;7506308;-31
2023/04/25 01:46:38;;;;;;;0.70;0.50;;;;;;;-128.00;-1.00;-1.00;18458;289;7506032;-35
2023/04/25 01:49:04;;;;;;;0.20;0.20;;;;;;;-128.00;-1.00;-1.00;18474;295;7504486;-32
2023/04/25 01:51:31;;;;;;;0.40;0.30;;;;;;;-128.00;-1.00;-1.00;18487;295;7504952;-30
2023/04/25 01:53:57;;;;;;;11.00;0.50;;;;;;;-128.00;-1.00;-1.00;18453;295;7504478;-35
2023/04/25 01:56:23;;;;;;;1.10;0.40;;;;;;;-128.00;-1.00;-1.00;18462;287;7504463;-32
2023/04/25 01:58:48;;;;;;;0.70;0.50;;;;;;;-128.00;-1.00;-1.00;18466;295;7504797;-35
2023/04/25 02:01:14;;;;;;;1.20;0.50;;;;;;;-128.00;-1.00;-1.00;18509;295;7504359;-30
2023/04/25 02:03:40;;;;;;;3.30;0.70;;;;;;;-128.00;-1.00;-1.00;18474;295;7505187;-30
2023/04/25 02:06:05;;;;;;;4.60;0.40;;;;;;;-128.00;-1.00;-1.00;18472;295;7504918;-31
2023/04/25 02:08:31;;;;;;;1.30;0.70;;;;;;;-128.00;-1.00;-1.00;18472;347;7506835;-31
2023/04/25 02:10:57;;;;;;;3.00;0.40;;;;;;;-128.00;-1.00;-1.00;18847;295;7504622;-31
2023/04/25 02:13:23;;;;;;;0.60;0.50;;;;;;;-128.00;-1.00;-1.00;18477;295;7505976;-36
2023/04/25 02:15:49;;;;;;;1.60;0.60;;;;;;;-128.00;-1.00;-1.00;18879;295;7504727;-35
2023/04/25 02:18:16;;;;;;;0.50;0.30;;;;;;;-128.00;-1.00;-1.00;18892;297;7504598;-32
2023/04/25 02:20:43;;;;;;;2.60;0.90;;;;;;;-128.00;-1.00;-1.00;18861;287;7505107;-32
2023/04/25 02:23:08;;;;;;;5.80;0.90;;;;;;;-128.00;-1.00;-1.00;18474;295;7504630;-31
2023/04/25 02:25:34;;;;;;;1.90;0.70;;;;;;;-128.00;-1.00;-1.00;18502;288;7504466;-35
2023/04/25 02:28:00;;;;;;;1.00;0.70;;;;;;;-128.00;-1.00;-1.00;18453;318;7504720;-30
2023/04/25 02:30:25;;;;;;;0.50;0.40;;;;;;;-128.00;-1.00;-1.00;18466;335;7506015;-35
2023/04/25 02:32:51;;;;;;;2.40;0.50;;;;;;;-128.00;-1.00;-1.00;18893;295;7505565;-34
2023/04/25 02:35:18;;;;;;;0.60;0.40;;;;;;;-128.00;-1.00;-1.00;18879;295;7504964;-30
2023/04/25 02:37:44;;;;;;;0.60;0.50;;;;;;;-128.00;-1.00;-1.00;18918;295;7505469;-35
2023/04/25 02:40:11;;;;;;;1.00;0.40;;;;;;;-128.00;-1.00;-1.00;18881;295;7504880;-31
2023/04/25 02:42:37;;;;;;;0.90;0.30;;;;;;;-128.00;-1.00;-1.00;18882;288;7504499;-34
2023/04/25 02:45:03;;;;;;;3.70;0.80;;;;;;;-128.00;-1.00;-1.00;18875;318;7505369;-30
2023/04/25 02:47:30;;;;;;;2.60;0.40;;;;;;;-128.00;-1.00;-1.00;18889;287;7504858;-30
2023/04/25 02:49:56;;;;;;;0.20;0.20;;;;;;;-128.00;-1.00;-1.00;18471;347;7504212;-34
2023/04/25 02:52:21;;;;;;;2.50;0.40;;;;;;;-128.00;-1.00;-1.00;18474;295;7504822;-30
2023/04/25 02:54:47;;;;;;;1.10;0.50;;;;;;;-128.00;-1.00;-1.00;18885;289;7504857;-34
2023/04/25 02:57:13;;;;;;;1.00;0.60;;;;;;;-128.00;-1.00;-1.00;18906;318;7504913;-34
2023/04/25 02:59:40;;;;;;;0.80;0.40;;;;;;;-128.00;-1.00;-1.00;18899;295;7504607;-31
2023/04/25 03:02:06;;;;;;;1.30;0.70;;;;;;;-128.00;-1.00;-1.00;18439;347;7505179;-30
2023/04/25 03:04:33;;;;;;;2.20;0.80;;;;;;;-128.00;-1.00;-1.00;18890;295;7505723;-30
2023/04/25 03:06:59;;;;;;;1.70;0.40;;;;;;;-128.00;-1.00;-1.00;18461;333;7505966;-31
2023/04/25 03:09:24;;;;;;;0.60;0.40;;;;;;;-128.00;-1.00;-1.00;18487;307;7504409;-33
2023/04/25 03:11:50;;;;;;;3.00;0.50;;;;;;;-128.00;-1.00;-1.00;18482;295;7505796;-31
2023/04/25 03:14:16;;;;;;;7.20;0.50;;;;;;;-128.00;-1.00;-1.00;18502;284;7504848;-34
2023/04/25 03:16:42;;;;;;;1.10;0.40;;;;;;;-128.00;-1.00;-1.00;18865;295;7504285;-35
2023/04/25 03:19:08;;;;;;;0.70;0.50;;;;;;;-128.00;-1.00;-1.00;18910;295;7505232;-30
2023/04/25 03:21:35;;;;;;;1.30;0.60;;;;;;;-128.00;-1.00;-1.00;18881;349;7504786;-31
2023/04/25 03:24:02;;;;;;;2.20;0.80;;;;;;;-128.00;-1.00;-1.00;18886;306;7505432;-35
2023/04/25 03:26:28;;;;;;;1.00;0.60;;;;;;;-128.00;-1.00;-1.00;18488;295;7505724;-31
2023/04/25 03:28:53;;;;;;;0.90;0.60;;;;;;;-128.00;-1.00;-1.00;18443;295;7504613;-30
2023/04/25 03:31:20;;;;;;;1.10;0.40;;;;;;;-128.00;-1.00;-1.00;18875;335;7504235;-30
2023/04/25 03:33:46;;;;;;;0.60;0.40;;;;;;;-128.00;-1.00;-1.00;18873;287;7504591;-34
2023/04/25 03:36:12;;;;;;;1.40;0.60;;;;;;;-128.00;-1.00;-1.00;18868;318;7504842;-30
2023/04/25 03:38:38;;;;;;;0.60;0.40;;;;;;;-128.00;-1.00;-1.00;18878;295;7506026;-35
2023/04/25 03:41:04;;;;;;;2.50;1.10;;;;;;;-128.00;-1.00;-1.00;18889;295;7504490;-34
2023/04/25 03:43:31;;;;;;;1.30;0.40;;;;;;;-128.00;-1.00;-1.00;18876;340;7504764;-31
2023/04/25 03:45:57;;;;;;;1.90;0.70;;;;;;;-128.00;-1.00;-1.00;18878;297;7504344;-32
2023/04/25 03:48:24;;;;;;;2.20;0.80;;;;;;;-128.00;-1.00;-1.00;18880;295;7504682;-31
2023/04/25 03:50:50;;;;;;;2.50;0.90;;;;;;;-128.00;-1.00;-1.00;18445;307;7504794;-35
2023/04/25 03:53:16;;;;;;;1.30;0.80;;;;;;;-128.00;-1.00;-1.00;18859;288;7504839;-34
2023/04/25 03:55:42;;;;;;;1.00;0.60;;;;;;;-128.00;-1.00;-1.00;18896;295;7504065;-33
2023/04/25 03:58:08;;;;;;;2.70;0.80;;;;;;;-128.00;-1.00;-1.00;18890;295;7504770;-34
2023/04/25 04:00:35;;;;;;;1.30;0.80;;;;;;;-128.00;-1.00;-1.00;18883;288;7505944;-34
2023/04/25 04:03:01;;;;;;;1.60;0.90;;;;;;;-128.00;-1.00;-1.00;18479;295;7505114;-31
2023/04/25 04:05:27;;;;;;;2.50;0.80;;;;;;;-128.00;-1.00;-1.00;18879;288;7504030;-33
2023/04/25 04:07:53;;;;;;;3.60;0.70;;;;;;;-128.00;-1.00;-1.00;18871;335;7504522;-35
2023/04/25 04:10:20;;;;;;;1.60;0.80;;;;;;;-128.00;-1.00;-1.00;18887;289;7504395;-29
2023/04/25 04:12:46;;;;;;;2.20;1.30;;;;;;;-128.00;-1.00;-1.00;18858;295;7504683;-34
2023/04/25 04:15:12;;;;;;;2.00;1.30;;;;;;;-128.00;-1.00;-1.00;18895;288;7505259;-30
2023/04/25 04:17:38;;;;;;;1.80;1.10;;;;;;;-128.00;-1.00;-1.00;18881;288;7504363;-32
2023/04/25 04:20:06;;;;;;;2.60;1.40;;;;;;;-128.00;-1.00;-1.00;18868;288;7504399;-30
2023/04/25 04:22:31;;;;;;;1.30;0.90;;;;;;;-128.00;-1.00;-1.00;18439;295;7505303;-34
2023/04/25 04:24:57;;;;;;;1.40;0.80;;;;;;;-128.00;-1.00;-1.00;18862;295;7504530;-34
2023/04/25 04:27:24;;;;;;;1.10;0.80;;;;;;;-128.00;-1.00;-1.00;18896;288;7505394;-34
2023/04/25 04:29:52;;;;;;;2.10;1.10;;;;;;;-128.00;-1.00;-1.00;18868;295;7504499;-30
2023/04/25 04:32:17;;;;;;;0.70;0.50;;;;;;;-128.00;-1.00;-1.00;18451;297;7505994;-34
2023/04/25 04:34:43;;;;;;;1.90;1.80;;;;;;;-128.00;-1.00;-1.00;18459;295;7504235;-35
2023/04/25 04:37:09;;;;;;;1.00;0.60;;;;;;;-128.00;-1.00;-1.00;18457;311;7506299;-31
2023/04/25 05:17:45;;;;;;;2.20;1.60;;;;;;;-101.13;19.20;19684.88;19586;295;7775733;-34
2023/04/25 05:20:11;;;;;;;3.20;1.80;;;;;;;-128.00;-1.00;-1.00;18245;297;7504760;-31
2023/04/25 05:22:37;;;;;;;1.70;1.60;;;;;;;-128.00;-1.00;-1.00;18464;297;7506208;-32
2023/04/25 05:25:03;;;;;;;4.40;1.70;;;;;;;-128.00;-1.00;-1.00;18488;288;7504475;-34
2023/04/25 05:27:29;;;;;;;1.50;0.90;;;;;;;-128.00;-1.00;-1.00;18483;296;7505129;-30
2023/04/25 05:29:55;;;;;;;2.00;0.90;;;;;;;-128.00;-1.00;-1.00;18473;287;7505672;-35
2023/04/25 05:32:21;;;;;;;1.30;0.80;;;;;;;-128.00;-1.00;-1.00;18868;296;7504314;-35
2023/04/25 05:34:47;;;;;;;3.00;1.50;;;;;;;-128.00;-1.00;-1.00;18882;295;7505566;-31
2023/04/25 05:37:13;;;;;;;3.30;1.60;;;;;;;-128.00;-1.00;-1.00;18886;288;7504505;-31
2023/04/25 05:39:39;;;;;;;4.10;2.80;;;;;;;-128.00;-1.00;-1.00;18874;296;7505078;-31
2023/04/25 05:42:06;;;;;;;2.00;1.10;;;;;;;-128.00;-1.00;-1.00;18872;295;7505077;-31
2023/04/25 05:44:32;;;;;;;4.70;1.20;;;;;;;-128.00;-1.00;-1.00;18857;295;7504357;-31
2023/04/25 05:46:58;;;;;;;4.00;3.10;;;;;;;-128.00;-1.00;-1.00;18887;288;7504863;-36
2023/04/25 05:49:24;;;;;;;5.40;1.70;;;;;;;-128.00;-1.00;-1.00;18851;295;7504777;-34
2023/04/25 05:51:51;;;;;;;3.20;2.70;;;;;;;-128.00;-1.00;-1.00;18887;295;7504481;-35
2023/04/25 05:54:17;;;;;;;3.60;2.40;;;;;;;-128.00;-1.00;-1.00;18868;336;7504699;-35
2023/04/25 05:56:43;;;;;;;4.40;2.10;;;;;;;-128.00;-1.00;-1.00;18863;285;7505028;-35
2023/04/25 05:59:10;;;;;;;3.10;2.10;;;;;;;-128.00;-1.00;-1.00;18454;296;7504758;-34
2023/04/25 06:01:36;;;;;;;3.80;1.50;;;;;;;-128.00;-1.00;-1.00;18489;296;7504842;-36
2023/04/25 06:04:03;;;;;;;4.60;2.70;;;;;;;-128.00;-1.00;-1.00;18481;295;7506064;-36
2023/04/25 06:06:30;;;;;;;2.90;1.10;;;;;;;-128.00;-1.00;-1.00;18470;296;7504518;-31
2023/04/25 06:08:56;;;;;;;2.60;1.90;;;;;;;-128.00;-1.00;-1.00;18445;295;7505760;-35
2023/04/25 06:11:22;;;;;;;2.00;1.70;;;;;;;-128.00;-1.00;-1.00;18883;288;7504957;-31
2023/04/25 06:13:48;;;;;;;3.50;2.90;;;;;;;-128.00;-1.00;-1.00;18885;297;7504559;-32
2023/04/25 06:16:14;;;;;;;6.60;3.10;;;;;;;-128.00;-1.00;-1.00;18860;295;7504430;-34
2023/04/25 06:18:41;;;;;;;2.10;0.80;;;;;;;-128.00;-1.00;-1.00;18865;297;7504327;-31
2023/04/25 06:21:07;;;;;;;4.90;4.10;;;;;;;-128.00;-1.00;-1.00;18871;287;7504351;-37
2023/04/25 06:23:33;;;;;;;5.00;3.30;;;;;;;-128.00;-1.00;-1.00;18886;287;7504513;-36
2023/04/25 06:25:59;;;;;;;3.70;2.60;;;;;;;-128.00;-1.00;-1.00;18855;297;7504723;-35
2023/04/25 06:28:26;;;;;;;5.50;2.60;;;;;;;-128.00;-1.00;-1.00;18901;295;7504192;-32
2023/04/25 06:30:52;;;;;;;3.90;2.90;;;;;;;-128.00;-1.00;-1.00;18870;348;7505099;-32
2023/04/25 06:33:18;;;;;;;5.90;3.70;;;;;;;-128.00;-1.00;-1.00;18864;296;7504411;-32
2023/04/25 06:35:44;;;;;;;6.90;3.50;;;;;;;-128.00;-1.00;-1.00;18906;319;7504530;-33
2023/04/25 06:38:10;;;;;;;5.40;4.00;;;;;;;-128.00;-1.00;-1.00;18854;288;7504834;-36
2023/04/25 06:40:37;;;;;;;5.80;3.80;;;;;;;-128.00;-1.00;-1.00;18941;296;7505063;-32
2023/04/25 06:43:03;;;;;;;4.10;3.10;;;;;;;-128.00;-1.00;-1.00;18837;296;7504699;-35
2023/04/25 06:45:29;;;;;;;6.00;4.00;;;;;;;-128.00;-1.00;-1.00;18892;295;7504279;-31
2023/04/25 06:47:55;;;;;;;5.70;4.70;;;;;;;-128.00;-1.00;-1.00;18889;287;7505442;-31
2023/04/25 06:50:22;;;;;;;5.80;3.70;;;;;;;-128.00;-1.00;-1.00;18851;298;7504720;-35
2023/04/25 06:52:48;;;;;;;4.60;3.40;;;;;;;-128.00;-1.00;-1.00;18893;287;7504749;-31
2023/04/25 06:55:14;;;;;;;7.50;3.90;;;;;;;-128.00;-1.00;-1.00;18891;295;7504666;-32
2023/04/25 06:57:40;;;;;;;4.10;3.60;;;;;;;-128.00;-1.00;-1.00;18915;297;7504054;-36
2023/04/25 07:00:10;;;;;;;4.40;3.10;;;;;;;-128.00;-1.00;-1.00;18871;296;7504352;-32
2023/04/25 07:02:36;;;;;;;4.10;3.50;;;;;;;-128.00;-1.00;-1.00;18467;348;7504971;-35
2023/04/25 07:05:03;;;;;;;10.10;4.80;;;;;;;-128.00;-1.00;-1.00;18863;288;7504394;-31
2023/04/25 07:07:30;;;;;;;4.00;3.20;;;;;;;-128.00;-1.00;-1.00;18475;295;7505324;-31
2023/04/25 07:09:56;;;;;;;9.10;3.60;;;;;;;-128.00;-1.00;-1.00;18494;296;7505539;-35
2023/04/25 07:12:21;;;;;;;4.50;3.60;;;;;;;-128.00;-1.00;-1.00;18463;283;7504945;-31
2023/04/25 07:14:47;;;;;;;3.50;2.90;;;;;;;-128.00;-1.00;-1.00;18488;288;7504047;-32
2023/04/25 07:17:13;;;;;;;2.80;2.40;;;;;;;-128.00;-1.00;-1.00;18486;298;7504814;-30
2023/04/25 07:19:39;;;;;;;4.30;2.70;;;;;;;-128.00;-1.00;-1.00;18492;347;7504772;-36
2023/04/25 07:22:06;;;;;;;4.10;3.70;;;;;;;-128.00;-1.00;-1.00;18487;288;7506135;-37
2023/04/25 07:24:32;;;;;;;3.60;3.30;;;;;;;-128.00;-1.00;-1.00;18519;287;7504311;-32
2023/04/25 07:26:58;;;;;;;5.00;3.30;;;;;;;-128.00;-1.00;-1.00;18494;296;7504935;-30
2023/04/25 07:29:24;;;;;;;7.20;3.80;;;;;;;-128.00;-1.00;-1.00;18862;296;7504360;-34
2023/04/25 07:31:50;;;;;;;5.40;4.10;;;;;;;-128.00;-1.00;-1.00;18890;287;7506135;-32
2023/04/25 07:34:16;;;;;;;4.40;3.70;;;;;;;-128.00;-1.00;-1.00;18471;342;7505978;-30
2023/04/25 07:36:43;;;;;;;4.00;3.40;;;;;;;-128.00;-1.00;-1.00;18510;343;7504178;-34
2023/04/25 07:39:09;;;;;;;3.20;2.50;;;;;;;-128.00;-1.00;-1.00;18486;296;7505226;-30
2023/04/25 07:41:34;;;;;;;4.90;2.50;;;;;;;-128.00;-1.00;-1.00;18442;342;7504844;-34
2023/04/25 07:44:00;;;;;;;5.40;1.50;;;;;;;-128.00;-1.00;-1.00;18488;287;7504759;-31
2023/04/25 07:46:26;;;;;;;6.20;2.10;;;;;;;-128.00;-1.00;-1.00;18484;287;7504453;-35
2023/04/25 07:48:52;;;;;;;3.50;3.10;;;;;;;-128.00;-1.00;-1.00;18870;337;7504352;-31
2023/04/25 07:51:19;;;;;;;5.20;2.60;;;;;;;-128.00;-1.00;-1.00;18908;295;7504549;-34
2023/04/25 07:53:46;;;;;;;1.10;0.70;;;;;;;-128.00;-1.00;-1.00;18461;285;7504916;-31
2023/04/25 07:56:11;;;;;;;3.70;1.80;;;;;;;-128.00;-1.00;-1.00;18483;296;7504815;-30
2023/04/25 07:58:37;;;;;;;2.90;2.50;;;;;;;-128.00;-1.00;-1.00;18495;287;7505008;-31
2023/04/25 08:01:03;;;;;;;7.60;2.70;;;;;;;-128.00;-1.00;-1.00;18480;296;7504594;-30
2023/04/25 08:03:29;;;;;;;4.20;2.70;;;;;;;-128.00;-1.00;-1.00;18485;296;7505577;-34
2023/04/25 08:05:55;;;;;;;4.00;2.30;;;;;;;-128.00;-1.00;-1.00;18471;296;7504260;-36
2023/04/25 08:08:23;;;;;;;4.30;2.80;;;;;;;-128.00;-1.00;-1.00;18490;296;7505619;-35
2023/04/25 08:10:48;;;;;;;3.40;2.10;;;;;;;-128.00;-1.00;-1.00;18469;298;7504820;-36
2023/04/25 08:13:14;;;;;;;7.20;3.60;;;;;;;-128.00;-1.00;-1.00;18473;296;7506242;-35
2023/04/25 08:15:40;;;;;;;2.30;1.90;;;;;;;-128.00;-1.00;-1.00;18521;296;7505108;-31
2023/04/25 08:18:06;;;;;;;5.10;3.00;;;;;;;-128.00;-1.00;-1.00;18483;287;7504932;-34
2023/04/25 08:20:32;;;;;;;2.60;1.90;;;;;;;-128.00;-1.00;-1.00;18487;295;7506023;-30
2023/04/25 08:22:57;;;;;;;3.80;2.30;;;;;;;-128.00;-1.00;-1.00;18505;283;7504412;-30
2023/04/25 08:25:24;;;;;;;3.90;2.90;;;;;;;-128.00;-1.00;-1.00;18874;295;7504257;-35
2023/04/25 08:27:50;;;;;;;2.00;1.50;;;;;;;-128.00;-1.00;-1.00;18893;296;7504738;-34
2023/04/25 08:30:16;;;;;;;3.10;1.70;;;;;;;-128.00;-1.00;-1.00;18868;296;7504712;-35
2023/04/25 08:32:42;;;;;;;8.80;2.00;;;;;;;-128.00;-1.00;-1.00;18859;296;7505002;-35
2023/04/25 08:35:09;;;;;;;14.30;2.20;;;;;;;-128.00;-1.00;-1.00;18878;287;7504224;-34
2023/04/25 08:37:36;;;;;;;6.20;2.20;;;;;;;-128.00;-1.00;-1.00;18866;348;7505576;-34
2023/04/25 08:40:06;;;;;;;5.40;1.50;;;;;;;-128.00;-1.00;-1.00;18462;303;7504908;-35
2023/04/25 08:42:34;;;;;;;3.30;2.00;;;;;;;-128.00;-1.00;-1.00;18494;296;7505113;-31
2023/04/25 08:45:01;;;;;;;4.60;1.60;;;;;;;-128.00;-1.00;-1.00;18490;296;7505425;-30
2023/04/25 08:47:27;;;;;;;1.60;1.40;;;;;;;-128.00;-1.00;-1.00;18465;297;7506086;-30
2023/04/25 08:49:52;;;;;;;5.90;2.00;;;;;;;-128.00;-1.00;-1.00;18475;287;7505797;-35
2023/04/25 08:52:21;;;;;;;2.50;2.30;;;;;;;-128.00;-1.00;-1.00;18439;287;7504837;-35
2023/04/25 08:54:48;;;;;;;3.20;1.90;;;;;;;-128.00;-1.00;-1.00;18458;336;7506192;-30
2023/04/25 08:57:15;;;;;;;8.20;1.80;;;;;;;-128.00;-1.00;-1.00;18458;348;7504929;-30
2023/04/25 08:59:45;;;;;;;5.30;1.50;;;;;;;-128.00;-1.00;-1.00;18470;296;7504660;-30
2023/04/25 09:02:14;;;;;;;11.30;1.40;;;;;;;-128.00;-1.00;-1.00;18466;296;7504732;-31
2023/04/25 09:04:42;;;;;;;3.60;0.90;;;;;;;-128.00;-1.00;-1.00;18459;297;7505316;-31
2023/04/25 09:07:08;;;;;;;4.70;1.30;;;;;;;-128.00;-1.00;-1.00;18490;348;7504422;-35
2023/04/25 09:09:35;;;;;;;2.80;1.40;;;;;;;-128.00;-1.00;-1.00;18443;287;7504401;-35
2023/04/25 09:12:01;;;;;;;3.30;1.30;;;;;;;-128.00;-1.00;-1.00;18470;296;7506060;-30
2023/04/25 09:14:27;;;;;;;7.30;1.90;;;;;;;-128.00;-1.00;-1.00;18503;319;7505993;-32
2023/04/25 09:16:59;;;;;;;2.40;1.50;;;;;;;-128.00;-1.00;-1.00;18481;296;7504522;-34
2023/04/25 09:19:29;;;;;;;;;;;;;;;-128.00;-1.00;-1.00;18448;287;7504845;-34
2023/04/25 09:21:56;;;;;;;3.50;1.70;;;;;;;-128.00;-1.00;-1.00;18446;348;7504617;-33
2023/04/25 09:24:41;;;;;;;2.00;1.60;;;;;;;-128.00;-1.00;-1.00;18494;287;7504552;-34
2023/04/25 09:27:09;;;;;;;2.90;1.40;;;;;;;-128.00;-1.00;-1.00;18475;296;7506258;-31
2023/04/25 09:29:36;;;;;;;1.60;1.00;;;;;;;-128.00;-1.00;-1.00;18461;297;7504386;-31
2023/04/25 09:32:19;;;;;;;4.30;1.80;;;;;;;-128.00;-1.00;-1.00;18472;319;7505857;-31
2023/04/25 09:34:50;;;;;;;2.90;0.90;;;;;;;-128.00;-1.00;-1.00;18456;348;7505829;-31
2023/04/25 09:37:28;;;;;;;2.30;1.30;;;;;;;-128.00;-1.00;-1.00;18465;296;7506063;-31
2023/04/25 09:39:55;;;;;;;1.70;0.90;;;;;;;-128.00;-1.00;-1.00;18482;295;7506567;-30
2023/04/25 09:42:28;;;;;;;1.40;1.30;;;;;;;-128.00;-1.00;-1.00;18466;296;7505468;-36
2023/04/25 09:44:55;;;;;;;7.80;1.70;;;;;;;-128.00;-1.00;-1.00;18467;287;7504394;-36
2023/04/25 09:47:23;;;;;;;3.30;1.70;;;;;;;-128.00;-1.00;-1.00;18475;287;7504517;-32
2023/04/25 09:49:50;;;;;;;2.30;1.70;;;;;;;-128.00;-1.00;-1.00;18473;296;7506393;-32
2023/04/25 09:52:18;;;;;;;4.30;2.10;;;;;;;-128.00;-1.00;-1.00;18484;295;7506393;-35
2023/04/25 09:54:45;;;;;;;1.90;1.50;;;;;;;-128.00;-1.00;-1.00;18443;298;7504876;-36
2023/04/25 09:57:12;;;;;;;5.70;1.90;;;;;;;-128.00;-1.00;-1.00;18497;311;7504525;-36
2023/04/25 09:59:43;;;;;;;1.90;1.20;;;;;;;-128.00;-1.00;-1.00;18499;295;7504560;-31
2023/04/25 10:02:09;;;;;;;2.10;1.10;;;;;;;-128.00;-1.00;-1.00;18465;295;7505986;-31
2023/04/25 10:04:35;;;;;;;3.30;1.90;;;;;;;-128.00;-1.00;-1.00;18902;288;7504699;-30
2023/04/25 10:07:03;;;;;;;3.30;2.20;;;;;;;-128.00;-1.00;-1.00;18474;348;7504818;-31
2023/04/25 10:09:31;;;;;;;2.20;1.90;;;;;;;-128.00;-1.00;-1.00;18485;287;7504145;-34
2023/04/25 10:11:57;;;;;;;2.10;2.00;;;;;;;-128.00;-1.00;-1.00;18475;295;7505049;-35
2023/04/25 10:14:23;;;;;;;4.30;2.60;;;;;;;-128.00;-1.00;-1.00;18866;296;7505275;-34
2023/04/25 10:16:53;;;;;;;4.40;2.40;;;;;;;-128.00;-1.00;-1.00;18844;298;7505899;-33
2023/04/25 10:19:22;;;;;;;6.90;3.10;;;;;;;-128.00;-1.00;-1.00;18474;295;7504888;-31
2023/04/25 10:22:07;;;;;;;5.00;2.70;;;;;;;-128.00;-1.00;-1.00;18478;297;7504536;-34
2023/04/25 10:24:35;;;;;;;3.40;2.20;;;;;;;-128.00;-1.00;-1.00;18515;287;7504066;-30
2023/04/25 10:27:01;;;;;;;2.50;2.30;;;;;;;-128.00;-1.00;-1.00;18479;348;7504700;-30
2023/04/25 10:29:27;;;;;;;3.30;2.40;;;;;;;-128.00;-1.00;-1.00;18481;287;7504117;-30
2023/04/25 10:31:53;;;;;;;3.80;2.90;;;;;;;-128.00;-1.00;-1.00;18490;300;7504462;-30
2023/04/25 10:34:19;;;;;;;5.50;2.90;;;;;;;-128.00;-1.00;-1.00;18493;296;7505038;-30
2023/04/25 10:36:52;;;;;;;14.40;2.90;;;;;;;-128.00;-1.00;-1.00;18475;295;7504524;-31
2023/04/25 10:39:25;;;;;;;2.50;1.70;;;;;;;-128.00;-1.00;-1.00;18492;287;7505843;-34
2023/04/25 10:41:57;;;;;;;8.80;3.00;;;;;;;-128.00;-1.00;-1.00;18490;296;7504740;-34
2023/04/25 10:44:22;;;;;;;2.70;1.80;;;;;;;-128.00;-1.00;-1.00;18487;287;7504445;-36
2023/04/25 10:46:48;;;;;;;2.40;1.50;;;;;;;-128.00;-1.00;-1.00;18461;296;7504707;-30
2023/04/25 10:49:29;;;;;;;3.20;2.90;;;;;;;-128.00;-1.00;-1.00;18484;296;7505116;-30
2023/04/25 10:52:19;;;;;;;8.80;2.90;;;;;;;-128.00;-1.00;-1.00;18447;348;7504449;-31
2023/04/25 10:54:51;;;;;;;2.50;2.10;;;;;;;-128.00;-1.00;-1.00;18479;296;7506004;-35
2023/04/25 10:57:36;;;;;;;2.20;1.50;;;;;;;-128.00;-1.00;-1.00;18474;287;7504880;-35
2023/04/25 11:00:13;;;;;;;2.20;1.90;;;;;;;-128.00;-1.00;-1.00;18468;287;7505879;-34
2023/04/25 11:02:46;;;;;;;6.40;2.70;;;;;;;-128.00;-1.00;-1.00;18452;296;7504409;-31
2023/04/25 11:05:21;;;;;;;3.50;1.80;;;;;;;-128.00;-1.00;-1.00;18489;295;7504821;-31
2023/04/25 11:47:13;;;;;;;3.90;3.50;;;;;;;-99.97;10.95;19686.96;98203;294;1544789;-33
2023/04/25 11:49:39;;;;;;;2.00;1.50;;;;;;;-128.00;-1.00;-1.00;97479;295;1003520;-30
2023/04/25 11:52:06;;;;;;;6.60;2.30;;;;;;;-128.00;-1.00;-1.00;97821;295;1005082;-34
2023/04/25 11:54:35;;;;;;;4.50;2.90;;;;;;;-128.00;-1.00;-1.00;97911;285;1003548;-34
2023/04/25 11:57:01;;;;;;;6.50;3.00;;;;;;;-128.00;-1.00;-1.00;97796;295;1003554;-30
2023/04/25 11:59:27;;;;;;;3.60;2.70;;;;;;;-128.00;-1.00;-1.00;97919;295;1002338;-33
2023/04/25 12:01:54;;;;;;;4.20;2.40;;;;;;;-128.00;-1.00;-1.00;97972;295;1002716;-33
2023/04/25 12:04:21;;;;;;;2.50;2.00;;;;;;;-128.00;-1.00;-1.00;97901;295;1002897;-35
2023/04/25 12:06:48;;;;;;;7.90;1.40;;;;;;;-128.00;-1.00;-1.00;97935;295;1002675;-29
2023/04/25 12:09:15;;;;;;;6.40;2.20;;;;;;;-128.00;-1.00;-1.00;97878;295;1003483;-28
2023/04/25 12:11:43;;;;;;;2.90;2.00;;;;;;;-128.00;-1.00;-1.00;98062;295;1003232;-33
2023/04/25 12:14:10;;;;;;;4.00;1.90;;;;;;;-128.00;-1.00;-1.00;97917;295;1002941;-31
2023/04/25 12:16:44;;;;;;;2.40;2.20;;;;;;;-128.00;-1.00;-1.00;97840;295;1003274;-34
2023/04/25 12:19:09;;;;;;;2.70;1.50;;;;;;;-128.00;-1.00;-1.00;97889;295;1004704;-34
2023/04/25 12:21:35;;;;;;;4.60;3.10;;;;;;;-128.00;-1.00;-1.00;97764;295;1003196;-29
2023/04/25 12:24:14;;;;;;;2.00;1.40;;;;;;;-128.00;-1.00;-1.00;97886;295;1002850;-34
2023/04/25 12:27:03;;;;;;;4.00;1.30;;;;;;;-128.00;-1.00;-1.00;98051;295;1003010;-33
2023/04/25 12:29:31;;;;;;;4.10;1.20;;;;;;;-128.00;-1.00;-1.00;98005;295;1002803;-29
2023/04/25 12:31:57;;;;;;;2.20;1.40;;;;;;;-128.00;-1.00;-1.00;97916;295;1002893;-35
2023/04/25 12:34:23;;;;;;;3.70;1.00;;;;;;;-128.00;-1.00;-1.00;98001;295;1002995;-33
2023/04/25 12:36:49;;;;;;;1.10;0.90;;;;;;;-128.00;-1.00;-1.00;97864;295;1003651;-30
2023/04/25 12:39:16;;;;;;;2.90;1.80;;;;;;;-128.00;-1.00;-1.00;97903;295;1002930;-35
2023/04/25 12:41:43;;;;;;;1.00;0.60;;;;;;;-128.00;-1.00;-1.00;97934;295;1003433;-30
2023/04/25 12:44:10;;;;;;;2.40;1.00;;;;;;;-128.00;-1.00;-1.00;97809;298;1003129;-30
2023/04/25 12:46:36;;;;;;;1.40;1.00;;;;;;;-128.00;-1.00;-1.00;97861;295;1003755;-34
2023/04/25 12:49:03;;;;;;;1.50;0.90;;;;;;;-128.00;-1.00;-1.00;97881;294;1003383;-32
2023/04/25 12:51:29;;;;;;;2.80;1.00;;;;;;;-128.00;-1.00;-1.00;97943;295;1003895;-34